Photometre #354[Standard_N] Mount_Chacaltaya AOT

File : 20210607_354.hum

07/06/2021,11:37:37,TEMP=-7.2,BA=5.60,STAT.A=Abs.,ExtBa=12.55
07/06/2021,11:40:37,TEMP=-6.9,BA=5.48,STAT.A=Abs.,ExtBa=12.49
07/06/2021,11:44:04,TEMP=-6.7,BA=5.48,STAT.A=Abs.,ExtBa=12.45
07/06/2021,11:48:13,TEMP=-6.7,BA=5.48,STAT.A=Abs.,ExtBa=12.46
07/06/2021,11:53:13,TEMP=-6.7,BA=5.48,STAT.A=Abs.,ExtBa=12.48
07/06/2021,11:59:24,TEMP=-6.7,BA=5.48,STAT.A=Abs.,ExtBa=12.50
07/06/2021,12:07:12,TEMP=-6.8,BA=5.48,STAT.B=Abs.,ExtBa=12.51
07/06/2021,12:10:57,TEMP=-6.5,BA=5.52,STAT.A=Abs.,ExtBa=12.49
07/06/2021,12:15:08,TEMP=-6.4,BA=5.52,STAT.A=Abs.,ExtBa=12.49
07/06/2021,12:19:51,TEMP=-6.0,BA=5.52,STAT.A=Abs.,ExtBa=12.47
07/06/2021,12:25:14,TEMP=-5.4,BA=5.48,STAT.A=Abs.,ExtBa=12.49
07/06/2021,12:31:23,STAT.p
07/06/2021,12:38:35,TEMP=-3.9,BA=5.64,STAT.A=Abs.,ExtBa=12.76
07/06/2021,12:47:03,TEMP=-3.8,BA=5.56,STAT.A=Abs.,ExtBa=12.68
07/06/2021,12:57:11,TEMP=-3.5,BA=5.64,STAT.A=Abs.,ExtBa=12.60
07/06/2021,13:09:37,TEMP=-2.7,BA=5.60,STAT.A=Abs.,ExtBa=12.87
07/06/2021,13:25:20,TEMP=-1.7,BA=5.80,STAT.B=Abs.,ExtBa=13.52
07/06/2021,13:31:39,TEMP=-1.1,BA=5.84,STAT.F,ExtBa=13.63
07/06/2021,13:46:37,TEMP=-0.4,BA=5.88,STAT.D=Abs.,ExtBa=13.78
07/06/2021,14:01:38,TEMP=0.3,BA=5.88,STAT.D=Abs.,ExtBa=13.84
07/06/2021,14:16:38,TEMP=0.9,BA=5.88,STAT.D=Abs.,ExtBa=13.91
07/06/2021,14:31:40,TEMP=1.3,BA=5.84,STAT.F,ExtBa=14.04
07/06/2021,14:46:38,TEMP=2.0,BA=5.64,STAT.D=Abs.,ExtBa=13.98
07/06/2021,15:01:38,TEMP=2.1,BA=5.80,STAT.D=Abs.,ExtBa=14.17
07/06/2021,15:16:38,TEMP=2.6,BA=5.80,STAT.D=Abs.,ExtBa=14.26
07/06/2021,15:31:40,TEMP=2.8,BA=5.80,STAT.F,ExtBa=14.33
07/06/2021,15:46:38,STAT.p
07/06/2021,16:01:39,TEMP=3.2,BA=5.76,STAT.D=Abs.,ExtBa=14.34
07/06/2021,16:16:39,TEMP=3.6,BA=5.76,STAT.D=Abs.,ExtBa=14.38
07/06/2021,16:31:41,TEMP=4.0,BA=5.72,STAT.F,ExtBa=14.41
07/06/2021,16:46:39,TEMP=4.3,BA=5.72,STAT.D=Abs.,ExtBa=14.37
07/06/2021,17:01:39,TEMP=4.3,BA=5.72,STAT.D=Abs.,ExtBa=14.41
07/06/2021,17:16:39,TEMP=4.9,BA=5.68,STAT.D=Abs.,ExtBa=14.12
07/06/2021,17:31:40,TEMP=4.1,BA=5.64,STAT.F,ExtBa=13.98
07/06/2021,17:56:07,TEMP=4.5,BA=5.64,STAT.b=Abs.
07/06/2021,18:09:20,TEMP=5.1,BA=5.64,STAT.D=Abs.,ExtBa=14.28
07/06/2021,18:24:04,TEMP=5.2,BA=5.64,STAT.D=Abs.,ExtBa=14.26
07/06/2021,18:31:40,TEMP=5.2,BA=5.68,STAT.F,ExtBa=14.37
07/06/2021,18:46:38,TEMP=5.6,BA=5.68,STAT.D=Abs.,ExtBa=14.12
07/06/2021,19:01:38,TEMP=5.5,BA=5.68,STAT.D=Abs.,ExtBa=14.36
07/06/2021,19:16:38,TEMP=5.6,BA=5.68,STAT.D=Abs.,ExtBa=14.34
07/06/2021,19:31:39,TEMP=5.5,BA=5.64,STAT.F,ExtBa=14.33
07/06/2021,19:37:58,TEMP=5.5,BA=5.64,STAT.B=Abs.,ExtBa=14.32
07/06/2021,19:53:41,TEMP=5.5,BA=5.64,STAT.A=Abs.,ExtBa=14.31
07/06/2021,20:06:07,TEMP=5.3,BA=5.64,STAT.A=Abs.,ExtBa=14.30
07/06/2021,20:16:15,TEMP=5.3,BA=5.64,STAT.A=Abs.,ExtBa=14.29
07/06/2021,20:24:43,TEMP=5.3,BA=5.64,STAT.A=Abs.,ExtBa=14.28
07/06/2021,20:31:54,TEMP=5.2,BA=5.64,STAT.C=Abs.,ExtBa=14.26
07/06/2021,20:38:04,TEMP=5.0,BA=5.64,STAT.A=Abs.,ExtBa=14.25
07/06/2021,20:43:27,TEMP=4.8,BA=5.64,STAT.A=Abs.,ExtBa=14.25
07/06/2021,20:48:10,TEMP=4.3,BA=5.64,STAT.A=Abs.,ExtBa=14.23
07/06/2021,20:52:21,TEMP=4.1,BA=5.64,STAT.A=Abs.,ExtBa=14.21
07/06/2021,20:56:06,TEMP=4.1,BA=5.64,STAT.B=Abs.,ExtBa=14.20
07/06/2021,21:03:54,TEMP=3.4,BA=5.64,STAT.A=Abs.,ExtBa=14.21
07/06/2021,21:10:04,TEMP=3.3,BA=5.64,STAT.A=Abs.,ExtBa=14.19
07/06/2021,21:15:04,TEMP=3.1,BA=5.64,STAT.A=Abs.,ExtBa=14.17
07/06/2021,21:19:12,TEMP=3.0,BA=5.64,STAT.A=Abs.,ExtBa=14.13
07/06/2021,21:22:41,TEMP=3.0,BA=5.64,STAT.A=Abs.,ExtBa=14.08
07/06/2021,21:25:42,TEMP=3.0,BA=5.64,STAT.A=Abs.,ExtBa=14.05